sensor_id;sensor_type;location;lat;lon;timestamp;P1;durP1;ratioP1;P2;durP2;ratioP2
74616;SDS011;63123;50.906;4.198;2023-06-01T00:00:58;3.05;;;2.50;;
74616;SDS011;63123;50.906;4.198;2023-06-01T00:03:25;2.83;;;2.53;;
74616;SDS011;63123;50.906;4.198;2023-06-01T00:05:51;2.83;;;2.63;;
74616;SDS011;63123;50.906;4.198;2023-06-01T00:08:17;2.70;;;2.50;;
74616;SDS011;63123;50.906;4.198;2023-06-01T00:10:42;2.55;;;2.35;;
74616;SDS011;63123;50.906;4.198;2023-06-01T00:13:08;2.67;;;2.47;;
74616;SDS011;63123;50.906;4.198;2023-06-01T00:15:34;2.58;;;2.38;;
74616;SDS011;63123;50.906;4.198;2023-06-01T00:18:00;3.10;;;2.80;;
74616;SDS011;63123;50.906;4.198;2023-06-01T00:20:26;2.35;;;2.15;;
74616;SDS011;63123;50.906;4.198;2023-06-01T00:22:54;2.50;;;2.30;;
74616;SDS011;63123;50.906;4.198;2023-06-01T00:25:20;2.50;;;2.30;;
74616;SDS011;63123;50.906;4.198;2023-06-01T00:27:46;3.22;;;3.00;;
74616;SDS011;63123;50.906;4.198;2023-06-01T00:30:12;2.95;;;2.60;;
74616;SDS011;63123;50.906;4.198;2023-06-01T00:32:38;3.17;;;2.92;;
74616;SDS011;63123;50.906;4.198;2023-06-01T00:35:03;3.03;;;2.83;;
74616;SDS011;63123;50.906;4.198;2023-06-01T00:37:29;3.05;;;2.85;;
74616;SDS011;63123;50.906;4.198;2023-06-01T00:39:55;2.85;;;2.65;;
74616;SDS011;63123;50.906;4.198;2023-06-01T00:42:20;2.95;;;2.72;;
74616;SDS011;63123;50.906;4.198;2023-06-01T00:44:46;3.28;;;3.00;;
74616;SDS011;63123;50.906;4.198;2023-06-01T00:47:12;2.97;;;2.70;;
74616;SDS011;63123;50.906;4.198;2023-06-01T00:49:37;2.70;;;2.50;;
74616;SDS011;63123;50.906;4.198;2023-06-01T00:52:03;2.72;;;2.53;;
74616;SDS011;63123;50.906;4.198;2023-06-01T00:54:29;2.92;;;2.70;;
74616;SDS011;63123;50.906;4.198;2023-06-01T00:56:55;2.97;;;2.78;;
74616;SDS011;63123;50.906;4.198;2023-06-01T00:59:20;3.15;;;2.90;;
74616;SDS011;63123;50.906;4.198;2023-06-01T01:01:47;2.95;;;2.65;;
74616;SDS011;63123;50.906;4.198;2023-06-01T01:04:12;3.30;;;3.00;;
74616;SDS011;63123;50.906;4.198;2023-06-01T01:06:49;3.03;;;2.75;;
74616;SDS011;63123;50.906;4.198;2023-06-01T01:09:52;3.65;;;2.67;;
74616;SDS011;63123;50.906;4.198;2023-06-01T01:12:26;2.85;;;2.65;;
74616;SDS011;63123;50.906;4.198;2023-06-01T01:15:12;2.90;;;2.70;;
74616;SDS011;63123;50.906;4.198;2023-06-01T01:18:02;3.08;;;2.78;;
74616;SDS011;63123;50.906;4.198;2023-06-01T01:20:36;3.20;;;2.90;;
74616;SDS011;63123;50.906;4.198;2023-06-01T01:28:49;3.65;;;2.80;;
74616;SDS011;63123;50.906;4.198;2023-06-01T01:31:24;3.20;;;3.00;;
74616;SDS011;63123;50.906;4.198;2023-06-01T01:33:53;3.13;;;2.92;;
74616;SDS011;63123;50.906;4.198;2023-06-01T01:36:20;2.65;;;2.45;;
74616;SDS011;63123;50.906;4.198;2023-06-01T01:38:47;2.50;;;2.30;;
74616;SDS011;63123;50.906;4.198;2023-06-01T01:41:13;2.65;;;2.45;;
74616;SDS011;63123;50.906;4.198;2023-06-01T01:43:39;2.92;;;2.72;;
74616;SDS011;63123;50.906;4.198;2023-06-01T01:46:22;2.60;;;2.40;;
74616;SDS011;63123;50.906;4.198;2023-06-01T01:54:51;3.20;;;2.90;;
74616;SDS011;63123;50.906;4.198;2023-06-01T01:57:18;2.85;;;2.55;;
74616;SDS011;63123;50.906;4.198;2023-06-01T01:59:47;3.25;;;3.05;;
74616;SDS011;63123;50.906;4.198;2023-06-01T02:02:14;2.60;;;2.40;;
74616;SDS011;63123;50.906;4.198;2023-06-01T02:04:40;2.90;;;2.60;;
74616;SDS011;63123;50.906;4.198;2023-06-01T02:07:07;2.60;;;2.40;;
74616;SDS011;63123;50.906;4.198;2023-06-01T02:09:33;3.05;;;2.80;;
74616;SDS011;63123;50.906;4.198;2023-06-01T02:12:00;3.25;;;2.80;;
74616;SDS011;63123;50.906;4.198;2023-06-01T02:14:28;3.10;;;2.72;;
74616;SDS011;63123;50.906;4.198;2023-06-01T02:16:54;2.88;;;2.67;;
74616;SDS011;63123;50.906;4.198;2023-06-01T02:19:20;3.08;;;2.88;;
74616;SDS011;63123;50.906;4.198;2023-06-01T02:21:46;3.25;;;2.95;;
74616;SDS011;63123;50.906;4.198;2023-06-01T02:24:12;2.92;;;2.63;;
74616;SDS011;63123;50.906;4.198;2023-06-01T02:26:38;3.10;;;2.47;;
74616;SDS011;63123;50.906;4.198;2023-06-01T02:29:04;2.95;;;2.72;;
74616;SDS011;63123;50.906;4.198;2023-06-01T02:31:33;2.75;;;2.47;;
74616;SDS011;63123;50.906;4.198;2023-06-01T02:33:59;2.75;;;2.50;;
74616;SDS011;63123;50.906;4.198;2023-06-01T02:36:28;3.00;;;2.78;;
74616;SDS011;63123;50.906;4.198;2023-06-01T02:38:57;3.10;;;2.90;;
74616;SDS011;63123;50.906;4.198;2023-06-01T02:41:23;2.88;;;2.65;;
74616;SDS011;63123;50.906;4.198;2023-06-01T02:43:49;2.95;;;2.75;;
74616;SDS011;63123;50.906;4.198;2023-06-01T02:46:18;2.67;;;2.47;;
74616;SDS011;63123;50.906;4.198;2023-06-01T02:48:44;2.90;;;2.70;;
74616;SDS011;63123;50.906;4.198;2023-06-01T02:51:10;3.05;;;2.85;;
74616;SDS011;63123;50.906;4.198;2023-06-01T02:53:38;2.70;;;2.50;;
74616;SDS011;63123;50.906;4.198;2023-06-01T02:56:07;2.95;;;2.72;;
74616;SDS011;63123;50.906;4.198;2023-06-01T02:58:33;2.88;;;2.67;;
74616;SDS011;63123;50.906;4.198;2023-06-01T03:00:59;3.03;;;2.83;;
74616;SDS011;63123;50.906;4.198;2023-06-01T03:03:25;3.03;;;2.70;;
74616;SDS011;63123;50.906;4.198;2023-06-01T03:05:52;3.55;;;3.25;;
74616;SDS011;63123;50.906;4.198;2023-06-01T03:08:17;3.38;;;3.08;;
74616;SDS011;63123;50.906;4.198;2023-06-01T03:10:43;2.78;;;2.58;;
74616;SDS011;63123;50.906;4.198;2023-06-01T03:13:09;3.22;;;3.03;;
74616;SDS011;63123;50.906;4.198;2023-06-01T03:15:36;3.13;;;2.83;;
74616;SDS011;63123;50.906;4.198;2023-06-01T03:18:04;3.40;;;3.10;;
74616;SDS011;63123;50.906;4.198;2023-06-01T03:20:33;2.92;;;2.70;;
74616;SDS011;63123;50.906;4.198;2023-06-01T03:22:59;3.75;;;3.45;;
74616;SDS011;63123;50.906;4.198;2023-06-01T03:25:25;2.67;;;2.47;;
74616;SDS011;63123;50.906;4.198;2023-06-01T03:27:51;3.13;;;2.72;;
74616;SDS011;63123;50.906;4.198;2023-06-01T03:30:17;3.33;;;3.03;;
74616;SDS011;63123;50.906;4.198;2023-06-01T03:32:43;3.33;;;3.03;;
74616;SDS011;63123;50.906;4.198;2023-06-01T03:35:10;3.67;;;3.38;;
74616;SDS011;63123;50.906;4.198;2023-06-01T03:37:37;3.05;;;2.78;;
74616;SDS011;63123;50.906;4.198;2023-06-01T03:40:04;2.97;;;2.78;;
74616;SDS011;63123;50.906;4.198;2023-06-01T03:42:37;3.00;;;2.80;;
74616;SDS011;63123;50.906;4.198;2023-06-01T03:45:04;3.10;;;2.90;;
74616;SDS011;63123;50.906;4.198;2023-06-01T03:47:30;3.10;;;2.90;;
74616;SDS011;63123;50.906;4.198;2023-06-01T03:49:56;2.95;;;2.75;;
74616;SDS011;63123;50.906;4.198;2023-06-01T03:52:23;3.75;;;3.42;;
74616;SDS011;63123;50.906;4.198;2023-06-01T03:54:50;2.92;;;2.72;;
74616;SDS011;63123;50.906;4.198;2023-06-01T03:57:16;3.22;;;3.03;;
74616;SDS011;63123;50.906;4.198;2023-06-01T03:59:42;2.90;;;2.70;;
74616;SDS011;63123;50.906;4.198;2023-06-01T04:02:08;3.10;;;2.83;;
74616;SDS011;63123;50.906;4.198;2023-06-01T04:04:34;4.05;;;3.65;;
74616;SDS011;63123;50.906;4.198;2023-06-01T04:07:00;3.53;;;3.22;;
74616;SDS011;63123;50.906;4.198;2023-06-01T04:09:28;3.33;;;3.05;;
74616;SDS011;63123;50.906;4.198;2023-06-01T04:11:54;3.38;;;3.08;;
74616;SDS011;63123;50.906;4.198;2023-06-01T04:14:20;3.70;;;3.40;;
74616;SDS011;63123;50.906;4.198;2023-06-01T04:16:46;3.53;;;3.20;;
74616;SDS011;63123;50.906;4.198;2023-06-01T04:19:11;3.80;;;3.47;;
74616;SDS011;63123;50.906;4.198;2023-06-01T04:21:37;3.47;;;3.17;;
74616;SDS011;63123;50.906;4.198;2023-06-01T04:24:03;3.33;;;3.13;;
74616;SDS011;63123;50.906;4.198;2023-06-01T04:26:29;3.25;;;3.05;;
74616;SDS011;63123;50.906;4.198;2023-06-01T04:28:57;3.17;;;2.97;;
74616;SDS011;63123;50.906;4.198;2023-06-01T04:31:23;3.60;;;3.35;;
74616;SDS011;63123;50.906;4.198;2023-06-01T04:33:49;3.28;;;2.97;;
74616;SDS011;63123;50.906;4.198;2023-06-01T04:36:21;3.15;;;2.90;;
74616;SDS011;63123;50.906;4.198;2023-06-01T04:38:50;4.10;;;3.80;;
74616;SDS011;63123;50.906;4.198;2023-06-01T04:41:19;3.25;;;3.05;;
74616;SDS011;63123;50.906;4.198;2023-06-01T04:43:46;3.35;;;3.10;;
74616;SDS011;63123;50.906;4.198;2023-06-01T04:46:20;3.38;;;3.08;;
74616;SDS011;63123;50.906;4.198;2023-06-01T04:48:51;4.20;;;3.80;;
74616;SDS011;63123;50.906;4.198;2023-06-01T04:51:20;4.03;;;3.60;;
74616;SDS011;63123;50.906;4.198;2023-06-01T04:53:46;4.00;;;3.70;;
74616;SDS011;63123;50.906;4.198;2023-06-01T04:56:25;3.45;;;3.25;;
74616;SDS011;63123;50.906;4.198;2023-06-01T04:58:54;3.85;;;3.53;;
74616;SDS011;63123;50.906;4.198;2023-06-01T05:01:21;3.42;;;3.15;;
74616;SDS011;63123;50.906;4.198;2023-06-01T05:03:50;4.05;;;3.65;;
74616;SDS011;63123;50.906;4.198;2023-06-01T05:06:17;4.00;;;3.70;;
74616;SDS011;63123;50.906;4.198;2023-06-01T05:08:44;3.60;;;3.30;;
74616;SDS011;63123;50.906;4.198;2023-06-01T05:11:13;3.05;;;2.80;;
74616;SDS011;63123;50.906;4.198;2023-06-01T05:13:39;5.20;;;4.38;;
74616;SDS011;63123;50.906;4.198;2023-06-01T05:16:06;4.32;;;4.03;;
74616;SDS011;63123;50.906;4.198;2023-06-01T05:18:32;3.50;;;3.20;;
74616;SDS011;63123;50.906;4.198;2023-06-01T05:20:59;5.03;;;4.63;;
74616;SDS011;63123;50.906;4.198;2023-06-01T05:23:25;3.50;;;3.20;;
74616;SDS011;63123;50.906;4.198;2023-06-01T05:25:52;4.53;;;4.20;;
74616;SDS011;63123;50.906;4.198;2023-06-01T05:28:28;4.65;;;4.25;;
74616;SDS011;63123;50.906;4.198;2023-06-01T05:30:57;3.83;;;3.53;;
74616;SDS011;63123;50.906;4.198;2023-06-01T05:33:23;4.55;;;4.15;;
74616;SDS011;63123;50.906;4.198;2023-06-01T05:35:49;3.85;;;3.53;;
74616;SDS011;63123;50.906;4.198;2023-06-01T05:38:15;4.70;;;4.30;;
74616;SDS011;63123;50.906;4.198;2023-06-01T05:40:40;4.53;;;4.13;;
74616;SDS011;63123;50.906;4.198;2023-06-01T05:43:07;4.70;;;4.32;;
74616;SDS011;63123;50.906;4.198;2023-06-01T05:45:33;4.57;;;4.18;;
74616;SDS011;63123;50.906;4.198;2023-06-01T05:47:58;5.40;;;4.05;;
74616;SDS011;63123;50.906;4.198;2023-06-01T05:50:24;4.93;;;4.53;;
74616;SDS011;63123;50.906;4.198;2023-06-01T05:52:50;4.25;;;3.85;;
74616;SDS011;63123;50.906;4.198;2023-06-01T05:55:16;4.82;;;4.43;;
74616;SDS011;63123;50.906;4.198;2023-06-01T05:57:42;4.95;;;4.45;;
74616;SDS011;63123;50.906;4.198;2023-06-01T06:00:08;5.68;;;4.50;;
74616;SDS011;63123;50.906;4.198;2023-06-01T06:02:37;4.68;;;4.28;;
74616;SDS011;63123;50.906;4.198;2023-06-01T06:05:03;5.47;;;4.97;;
74616;SDS011;63123;50.906;4.198;2023-06-01T06:07:29;4.28;;;3.88;;
74616;SDS011;63123;50.906;4.198;2023-06-01T06:09:55;4.75;;;4.35;;
74616;SDS011;63123;50.906;4.198;2023-06-01T06:12:21;4.95;;;4.55;;
74616;SDS011;63123;50.906;4.198;2023-06-01T06:14:46;5.25;;;4.85;;
74616;SDS011;63123;50.906;4.198;2023-06-01T06:17:13;4.55;;;4.15;;
74616;SDS011;63123;50.906;4.198;2023-06-01T06:19:39;4.80;;;4.40;;
74616;SDS011;63123;50.906;4.198;2023-06-01T06:22:08;5.07;;;4.57;;
74616;SDS011;63123;50.906;4.198;2023-06-01T06:24:34;4.32;;;3.92;;
74616;SDS011;63123;50.906;4.198;2023-06-01T06:27:00;4.85;;;4.45;;
74616;SDS011;63123;50.906;4.198;2023-06-01T06:29:25;4.30;;;3.97;;
74616;SDS011;63123;50.906;4.198;2023-06-01T06:31:51;4.63;;;4.22;;
74616;SDS011;63123;50.906;4.198;2023-06-01T06:34:16;4.50;;;4.10;;
74616;SDS011;63123;50.906;4.198;2023-06-01T06:36:42;5.65;;;5.15;;
74616;SDS011;63123;50.906;4.198;2023-06-01T06:39:08;5.15;;;4.65;;
74616;SDS011;63123;50.906;4.198;2023-06-01T06:41:34;4.85;;;4.45;;
74616;SDS011;63123;50.906;4.198;2023-06-01T06:44:00;5.05;;;4.55;;
74616;SDS011;63123;50.906;4.198;2023-06-01T06:46:25;4.95;;;4.53;;
74616;SDS011;63123;50.906;4.198;2023-06-01T06:48:51;5.47;;;5.05;;
74616;SDS011;63123;50.906;4.198;2023-06-01T06:51:17;4.93;;;4.53;;
74616;SDS011;63123;50.906;4.198;2023-06-01T06:53:42;5.03;;;4.65;;
74616;SDS011;63123;50.906;4.198;2023-06-01T06:56:08;4.88;;;4.47;;
74616;SDS011;63123;50.906;4.198;2023-06-01T06:58:34;5.18;;;4.68;;
74616;SDS011;63123;50.906;4.198;2023-06-01T07:00:59;5.63;;;5.13;;
74616;SDS011;63123;50.906;4.198;2023-06-01T07:03:29;5.43;;;4.93;;
74616;SDS011;63123;50.906;4.198;2023-06-01T07:05:55;5.53;;;5.03;;
74616;SDS011;63123;50.906;4.198;2023-06-01T07:08:21;4.72;;;4.32;;
74616;SDS011;63123;50.906;4.198;2023-06-01T07:10:47;4.43;;;4.13;;
74616;SDS011;63123;50.906;4.198;2023-06-01T07:13:12;5.18;;;4.78;;
74616;SDS011;63123;50.906;4.198;2023-06-01T07:15:38;4.95;;;4.55;;
74616;SDS011;63123;50.906;4.198;2023-06-01T07:18:04;4.60;;;4.20;;
74616;SDS011;63123;50.906;4.198;2023-06-01T07:20:29;5.32;;;4.82;;
74616;SDS011;63123;50.906;4.198;2023-06-01T07:22:55;4.30;;;3.92;;
74616;SDS011;63123;50.906;4.198;2023-06-01T07:25:21;5.20;;;4.80;;
74616;SDS011;63123;50.906;4.198;2023-06-01T07:27:47;4.97;;;4.57;;
74616;SDS011;63123;50.906;4.198;2023-06-01T07:30:13;4.47;;;4.18;;
74616;SDS011;63123;50.906;4.198;2023-06-01T07:32:39;4.55;;;4.15;;
74616;SDS011;63123;50.906;4.198;2023-06-01T07:35:05;5.32;;;4.85;;
74616;SDS011;63123;50.906;4.198;2023-06-01T07:37:33;5.50;;;5.05;;
74616;SDS011;63123;50.906;4.198;2023-06-01T07:39:58;4.88;;;4.45;;
74616;SDS011;63123;50.906;4.198;2023-06-01T07:42:24;4.90;;;4.50;;
74616;SDS011;63123;50.906;4.198;2023-06-01T07:44:49;5.03;;;4.60;;
74616;SDS011;63123;50.906;4.198;2023-06-01T07:47:18;5.57;;;5.07;;
74616;SDS011;63123;50.906;4.198;2023-06-01T07:49:44;5.45;;;4.93;;
74616;SDS011;63123;50.906;4.198;2023-06-01T07:52:09;5.35;;;4.82;;
74616;SDS011;63123;50.906;4.198;2023-06-01T07:54:35;4.85;;;4.50;;
74616;SDS011;63123;50.906;4.198;2023-06-01T07:57:04;4.55;;;4.15;;
74616;SDS011;63123;50.906;4.198;2023-06-01T07:59:31;4.95;;;4.57;;
74616;SDS011;63123;50.906;4.198;2023-06-01T08:01:56;4.50;;;4.10;;
74616;SDS011;63123;50.906;4.198;2023-06-01T08:04:23;5.25;;;4.85;;
74616;SDS011;63123;50.906;4.198;2023-06-01T08:06:49;5.20;;;4.65;;
74616;SDS011;63123;50.906;4.198;2023-06-01T08:09:18;5.50;;;5.00;;
74616;SDS011;63123;50.906;4.198;2023-06-01T08:11:48;5.85;;;5.35;;
74616;SDS011;63123;50.906;4.198;2023-06-01T08:14:14;5.15;;;4.70;;
74616;SDS011;63123;50.906;4.198;2023-06-01T08:16:40;5.30;;;4.88;;
74616;SDS011;63123;50.906;4.198;2023-06-01T08:19:06;6.18;;;5.57;;
74616;SDS011;63123;50.906;4.198;2023-06-01T08:21:33;6.25;;;5.65;;
74616;SDS011;63123;50.906;4.198;2023-06-01T08:24:00;4.88;;;4.50;;
74616;SDS011;63123;50.906;4.198;2023-06-01T08:26:27;5.38;;;4.97;;
74616;SDS011;63123;50.906;4.198;2023-06-01T08:28:53;5.50;;;5.00;;
74616;SDS011;63123;50.906;4.198;2023-06-01T08:31:19;5.38;;;4.88;;
74616;SDS011;63123;50.906;4.198;2023-06-01T08:33:45;5.95;;;5.45;;
74616;SDS011;63123;50.906;4.198;2023-06-01T08:36:12;5.43;;;4.95;;
74616;SDS011;63123;50.906;4.198;2023-06-01T08:38:38;5.10;;;4.70;;
74616;SDS011;63123;50.906;4.198;2023-06-01T08:41:09;5.90;;;5.40;;
74616;SDS011;63123;50.906;4.198;2023-06-01T08:43:42;5.10;;;4.68;;
74616;SDS011;63123;50.906;4.198;2023-06-01T08:46:15;5.43;;;5.03;;
74616;SDS011;63123;50.906;4.198;2023-06-01T08:48:42;5.53;;;5.03;;
74616;SDS011;63123;50.906;4.198;2023-06-01T08:51:08;5.65;;;5.15;;
74616;SDS011;63123;50.906;4.198;2023-06-01T08:53:35;5.38;;;4.95;;
74616;SDS011;63123;50.906;4.198;2023-06-01T08:56:03;6.45;;;5.53;;
74616;SDS011;63123;50.906;4.198;2023-06-01T08:58:29;5.32;;;4.93;;
74616;SDS011;63123;50.906;4.198;2023-06-01T09:00:55;4.88;;;4.47;;
74616;SDS011;63123;50.906;4.198;2023-06-01T09:03:23;5.30;;;4.82;;
74616;SDS011;63123;50.906;4.198;2023-06-01T09:05:49;5.47;;;5.00;;
74616;SDS011;63123;50.906;4.198;2023-06-01T09:08:14;5.60;;;5.18;;
74616;SDS011;63123;50.906;4.198;2023-06-01T09:10:41;5.85;;;5.35;;
74616;SDS011;63123;50.906;4.198;2023-06-01T09:13:07;5.50;;;5.10;;
74616;SDS011;63123;50.906;4.198;2023-06-01T09:15:32;5.18;;;4.78;;
74616;SDS011;63123;50.906;4.198;2023-06-01T09:18:08;5.63;;;5.22;;
74616;SDS011;63123;50.906;4.198;2023-06-01T09:20:38;5.30;;;4.90;;
74616;SDS011;63123;50.906;4.198;2023-06-01T09:23:05;5.82;;;5.32;;
74616;SDS011;63123;50.906;4.198;2023-06-01T09:25:31;5.63;;;5.13;;
74616;SDS011;63123;50.906;4.198;2023-06-01T09:27:59;5.35;;;4.85;;
74616;SDS011;63123;50.906;4.198;2023-06-01T09:30:39;5.80;;;5.30;;
74616;SDS011;63123;50.906;4.198;2023-06-01T09:33:10;4.95;;;4.55;;
74616;SDS011;63123;50.906;4.198;2023-06-01T09:38:11;5.43;;;4.93;;
74616;SDS011;63123;50.906;4.198;2023-06-01T09:40:45;5.00;;;4.60;;
74616;SDS011;63123;50.906;4.198;2023-06-01T09:43:27;5.60;;;5.18;;
74616;SDS011;63123;50.906;4.198;2023-06-01T09:46:03;5.15;;;4.75;;
74616;SDS011;63123;50.906;4.198;2023-06-01T09:48:30;5.20;;;4.80;;
74616;SDS011;63123;50.906;4.198;2023-06-01T09:50:56;4.90;;;4.50;;
74616;SDS011;63123;50.906;4.198;2023-06-01T09:53:22;5.28;;;4.85;;
74616;SDS011;63123;50.906;4.198;2023-06-01T09:56:05;5.00;;;4.63;;
74616;SDS011;63123;50.906;4.198;2023-06-01T09:58:31;5.00;;;4.60;;
74616;SDS011;63123;50.906;4.198;2023-06-01T10:00:59;4.72;;;4.32;;
74616;SDS011;63123;50.906;4.198;2023-06-01T10:03:25;4.97;;;4.57;;
74616;SDS011;63123;50.906;4.198;2023-06-01T10:05:52;4.70;;;4.40;;
74616;SDS011;63123;50.906;4.198;2023-06-01T10:08:18;5.00;;;4.60;;
74616;SDS011;63123;50.906;4.198;2023-06-01T10:10:46;4.75;;;4.35;;
74616;SDS011;63123;50.906;4.198;2023-06-01T10:13:13;5.13;;;4.72;;
74616;SDS011;63123;50.906;4.198;2023-06-01T10:15:38;4.90;;;4.50;;
74616;SDS011;63123;50.906;4.198;2023-06-01T10:18:05;5.22;;;4.82;;
74616;SDS011;63123;50.906;4.198;2023-06-01T10:20:32;4.32;;;4.03;;
74616;SDS011;63123;50.906;4.198;2023-06-01T10:22:59;4.80;;;4.43;;
74616;SDS011;63123;50.906;4.198;2023-06-01T10:25:26;5.15;;;4.72;;
74616;SDS011;63123;50.906;4.198;2023-06-01T10:28:09;4.28;;;3.90;;
74616;SDS011;63123;50.906;4.198;2023-06-01T10:30:36;5.18;;;4.60;;
74616;SDS011;63123;50.906;4.198;2023-06-01T10:33:02;4.55;;;4.20;;
74616;SDS011;63123;50.906;4.198;2023-06-01T10:40:37;4.88;;;4.45;;
74616;SDS011;63123;50.906;4.198;2023-06-01T10:43:04;4.80;;;4.32;;
74616;SDS011;63123;50.906;4.198;2023-06-01T10:48:02;5.45;;;4.80;;
74616;SDS011;63123;50.906;4.198;2023-06-01T10:50:29;4.30;;;3.90;;
74616;SDS011;63123;50.906;4.198;2023-06-01T10:52:55;4.78;;;4.38;;
74616;SDS011;63123;50.906;4.198;2023-06-01T10:55:25;4.97;;;4.47;;
74616;SDS011;63123;50.906;4.198;2023-06-01T10:57:52;4.70;;;4.30;;
74616;SDS011;63123;50.906;4.198;2023-06-01T11:00:44;4.60;;;4.22;;
74616;SDS011;63123;50.906;4.198;2023-06-01T11:03:10;4.90;;;4.50;;
74616;SDS011;63123;50.906;4.198;2023-06-01T11:13:26;5.00;;;4.60;;
74616;SDS011;63123;50.906;4.198;2023-06-01T11:19:04;4.50;;;4.10;;
74616;SDS011;63123;50.906;4.198;2023-06-01T11:21:38;5.00;;;4.60;;
74616;SDS011;63123;50.906;4.198;2023-06-01T11:24:15;4.55;;;4.10;;
74616;SDS011;63123;50.906;4.198;2023-06-01T11:26:43;4.82;;;4.43;;
74616;SDS011;63123;50.906;4.198;2023-06-01T11:31:41;4.80;;;4.40;;
74616;SDS011;63123;50.906;4.198;2023-06-01T11:34:11;4.93;;;4.53;;
74616;SDS011;63123;50.906;4.198;2023-06-01T11:36:39;4.88;;;4.47;;
74616;SDS011;63123;50.906;4.198;2023-06-01T11:39:16;4.50;;;4.10;;
74616;SDS011;63123;50.906;4.198;2023-06-01T11:41:43;4.70;;;4.35;;
74616;SDS011;63123;50.906;4.198;2023-06-01T11:44:09;4.35;;;3.97;;
74616;SDS011;63123;50.906;4.198;2023-06-01T11:46:35;4.55;;;4.10;;
74616;SDS011;63123;50.906;4.198;2023-06-01T11:49:05;5.20;;;4.70;;
74616;SDS011;63123;50.906;4.198;2023-06-01T11:51:32;5.40;;;4.40;;
74616;SDS011;63123;50.906;4.198;2023-06-01T11:54:02;4.53;;;4.18;;
74616;SDS011;63123;50.906;4.198;2023-06-01T11:56:33;4.75;;;4.40;;
74616;SDS011;63123;50.906;4.198;2023-06-01T11:59:01;4.30;;;4.00;;
74616;SDS011;63123;50.906;4.198;2023-06-01T12:01:33;5.10;;;4.70;;
74616;SDS011;63123;50.906;4.198;2023-06-01T12:04:02;4.18;;;3.78;;
74616;SDS011;63123;50.906;4.198;2023-06-01T12:06:29;4.72;;;4.30;;
74616;SDS011;63123;50.906;4.198;2023-06-01T12:08:56;4.88;;;4.40;;
74616;SDS011;63123;50.906;4.198;2023-06-01T12:11:23;4.75;;;4.30;;
74616;SDS011;63123;50.906;4.198;2023-06-01T12:13:57;5.95;;;5.35;;
74616;SDS011;63123;50.906;4.198;2023-06-01T12:16:23;4.53;;;4.22;;
74616;SDS011;63123;50.906;4.198;2023-06-01T12:18:50;4.55;;;4.15;;
74616;SDS011;63123;50.906;4.198;2023-06-01T12:21:16;4.60;;;4.28;;
74616;SDS011;63123;50.906;4.198;2023-06-01T12:23:43;4.25;;;3.95;;
74616;SDS011;63123;50.906;4.198;2023-06-01T12:26:13;4.72;;;4.32;;
74616;SDS011;63123;50.906;4.198;2023-06-01T12:28:49;4.22;;;3.83;;
74616;SDS011;63123;50.906;4.198;2023-06-01T12:31:22;3.95;;;3.65;;
74616;SDS011;63123;50.906;4.198;2023-06-01T12:33:48;4.88;;;4.43;;
74616;SDS011;63123;50.906;4.198;2023-06-01T12:38:56;5.03;;;4.50;;
74616;SDS011;63123;50.906;4.198;2023-06-01T12:41:24;4.57;;;4.18;;
74616;SDS011;63123;50.906;4.198;2023-06-01T12:43:50;5.15;;;4.68;;
74616;SDS011;63123;50.906;4.198;2023-06-01T12:49:10;5.43;;;5.00;;
74616;SDS011;63123;50.906;4.198;2023-06-01T12:51:40;4.55;;;4.18;;
74616;SDS011;63123;50.906;4.198;2023-06-01T12:54:05;4.93;;;4.53;;
74616;SDS011;63123;50.906;4.198;2023-06-01T12:56:31;4.80;;;4.40;;
74616;SDS011;63123;50.906;4.198;2023-06-01T12:58:57;5.07;;;4.57;;
74616;SDS011;63123;50.906;4.198;2023-06-01T13:01:22;4.38;;;3.97;;
74616;SDS011;63123;50.906;4.198;2023-06-01T13:03:48;4.90;;;4.50;;
74616;SDS011;63123;50.906;4.198;2023-06-01T13:06:16;4.43;;;3.92;;
74616;SDS011;63123;50.906;4.198;2023-06-01T13:08:42;5.28;;;4.65;;
74616;SDS011;63123;50.906;4.198;2023-06-01T13:11:08;4.25;;;3.95;;
74616;SDS011;63123;50.906;4.198;2023-06-01T13:13:33;4.68;;;4.28;;
74616;SDS011;63123;50.906;4.198;2023-06-01T13:15:59;5.15;;;4.65;;
74616;SDS011;63123;50.906;4.198;2023-06-01T13:18:26;4.68;;;4.28;;
74616;SDS011;63123;50.906;4.198;2023-06-01T13:20:52;5.07;;;4.57;;
74616;SDS011;63123;50.906;4.198;2023-06-01T13:23:18;4.80;;;4.40;;
74616;SDS011;63123;50.906;4.198;2023-06-01T13:25:43;4.30;;;4.00;;
74616;SDS011;63123;50.906;4.198;2023-06-01T13:28:09;4.97;;;4.47;;
74616;SDS011;63123;50.906;4.198;2023-06-01T13:30:36;4.50;;;4.10;;
74616;SDS011;63123;50.906;4.198;2023-06-01T13:33:04;4.75;;;4.35;;
74616;SDS011;63123;50.906;4.198;2023-06-01T13:35:30;4.40;;;4.05;;
74616;SDS011;63123;50.906;4.198;2023-06-01T13:37:56;4.90;;;4.50;;
74616;SDS011;63123;50.906;4.198;2023-06-01T13:40:21;5.00;;;4.60;;
74616;SDS011;63123;50.906;4.198;2023-06-01T13:42:50;4.82;;;4.40;;
74616;SDS011;63123;50.906;4.198;2023-06-01T13:45:17;4.90;;;4.40;;
74616;SDS011;63123;50.906;4.198;2023-06-01T13:47:43;5.80;;;5.00;;
74616;SDS011;63123;50.906;4.198;2023-06-01T13:50:09;5.18;;;4.68;;
74616;SDS011;63123;50.906;4.198;2023-06-01T13:52:37;4.25;;;3.95;;
74616;SDS011;63123;50.906;4.198;2023-06-01T13:55:03;4.60;;;3.90;;
74616;SDS011;63123;50.906;4.198;2023-06-01T13:57:29;4.30;;;3.90;;
74616;SDS011;63123;50.906;4.198;2023-06-01T13:59:55;4.35;;;3.95;;
74616;SDS011;63123;50.906;4.198;2023-06-01T14:02:20;4.38;;;3.97;;
74616;SDS011;63123;50.906;4.198;2023-06-01T14:04:46;4.75;;;4.35;;
74616;SDS011;63123;50.906;4.198;2023-06-01T14:07:12;4.30;;;4.00;;
74616;SDS011;63123;50.906;4.198;2023-06-01T14:09:37;4.78;;;4.38;;
74616;SDS011;63123;50.906;4.198;2023-06-01T14:12:03;4.72;;;4.32;;
74616;SDS011;63123;50.906;4.198;2023-06-01T14:14:29;4.50;;;4.13;;
74616;SDS011;63123;50.906;4.198;2023-06-01T14:16:54;4.65;;;4.25;;
74616;SDS011;63123;50.906;4.198;2023-06-01T14:19:20;3.97;;;3.58;;
74616;SDS011;63123;50.906;4.198;2023-06-01T14:21:45;4.75;;;4.35;;
74616;SDS011;63123;50.906;4.198;2023-06-01T14:24:11;4.60;;;4.20;;
74616;SDS011;63123;50.906;4.198;2023-06-01T14:26:37;4.57;;;4.18;;
74616;SDS011;63123;50.906;4.198;2023-06-01T14:29:02;4.53;;;4.13;;
74616;SDS011;63123;50.906;4.198;2023-06-01T14:31:28;5.05;;;4.47;;
74616;SDS011;63123;50.906;4.198;2023-06-01T14:33:53;4.78;;;4.30;;
74616;SDS011;63123;50.906;4.198;2023-06-01T14:36:20;5.18;;;4.68;;
74616;SDS011;63123;50.906;4.198;2023-06-01T14:38:45;4.70;;;4.30;;
74616;SDS011;63123;50.906;4.198;2023-06-01T14:41:11;5.00;;;4.55;;
74616;SDS011;63123;50.906;4.198;2023-06-01T14:43:37;4.70;;;4.30;;
74616;SDS011;63123;50.906;4.198;2023-06-01T14:46:04;4.63;;;4.22;;
74616;SDS011;63123;50.906;4.198;2023-06-01T14:48:29;4.70;;;4.30;;
74616;SDS011;63123;50.906;4.198;2023-06-01T14:50:55;5.15;;;4.70;;
74616;SDS011;63123;50.906;4.198;2023-06-01T14:53:21;4.43;;;4.13;;
74616;SDS011;63123;50.906;4.198;2023-06-01T14:55:46;4.95;;;4.45;;
74616;SDS011;63123;50.906;4.198;2023-06-01T14:58:12;4.40;;;3.90;;
74616;SDS011;63123;50.906;4.198;2023-06-01T15:00:38;4.13;;;3.72;;
74616;SDS011;63123;50.906;4.198;2023-06-01T15:03:03;4.45;;;4.05;;
74616;SDS011;63123;50.906;4.198;2023-06-01T15:05:29;4.00;;;3.67;;
74616;SDS011;63123;50.906;4.198;2023-06-01T15:07:55;4.35;;;4.05;;
74616;SDS011;63123;50.906;4.198;2023-06-01T15:10:20;4.57;;;4.18;;
74616;SDS011;63123;50.906;4.198;2023-06-01T15:12:46;4.72;;;4.22;;
74616;SDS011;63123;50.906;4.198;2023-06-01T15:15:12;4.70;;;4.13;;
74616;SDS011;63123;50.906;4.198;2023-06-01T15:17:38;4.75;;;4.35;;
74616;SDS011;63123;50.906;4.198;2023-06-01T15:20:05;4.68;;;4.22;;
74616;SDS011;63123;50.906;4.198;2023-06-01T15:22:31;5.13;;;4.55;;
74616;SDS011;63123;50.906;4.198;2023-06-01T15:24:57;4.50;;;4.10;;
74616;SDS011;63123;50.906;4.198;2023-06-01T15:27:23;4.40;;;4.00;;
74616;SDS011;63123;50.906;4.198;2023-06-01T15:29:49;4.10;;;3.75;;